createdAt,value
2018-09-30T08:14:08.253Z,21
2018-09-30T08:17:08.150Z,21
2018-09-30T08:20:08.162Z,22
2018-09-30T08:23:08.142Z,23
2018-09-30T08:26:08.291Z,24
2018-09-30T08:29:08.179Z,24
2018-09-30T08:32:08.276Z,25
2018-09-30T08:35:08.210Z,26
2018-09-30T08:38:08.317Z,28
2018-09-30T08:41:08.339Z,29
2018-09-30T08:44:08.306Z,29
2018-09-30T08:47:08.375Z,29
2018-09-30T08:50:08.260Z,29
2018-09-30T08:53:08.280Z,30
2018-09-30T08:56:08.352Z,30
2018-09-30T08:59:08.330Z,31
2018-09-30T09:02:08.340Z,31
2018-09-30T09:05:08.333Z,31
2018-09-30T09:08:08.811Z,31
2018-09-30T09:11:08.353Z,31
2018-09-30T09:14:08.405Z,32
2018-09-30T09:17:08.405Z,34
2018-09-30T09:20:08.442Z,35
2018-09-30T09:23:08.453Z,35
2018-09-30T09:26:08.464Z,35
2018-09-30T09:29:08.511Z,35
2018-09-30T09:32:08.510Z,35
2018-09-30T09:35:08.649Z,35
2018-09-30T09:38:08.610Z,36
2018-09-30T09:41:08.569Z,36
2018-09-30T09:44:08.603Z,36
2018-09-30T09:47:08.726Z,36
2018-09-30T09:50:09.052Z,37
2018-09-30T09:53:08.639Z,37
2018-09-30T09:56:08.671Z,37
2018-09-30T09:59:08.924Z,38
2018-09-30T10:02:09.139Z,38
2018-09-30T10:05:08.820Z,39
2018-09-30T10:08:08.892Z,38
2018-09-30T10:11:08.913Z,38
2018-09-30T10:14:08.819Z,38
2018-09-30T10:17:08.851Z,38
2018-09-30T10:20:08.852Z,38
2018-09-30T10:23:08.890Z,38
2018-09-30T10:26:08.899Z,38
2018-09-30T10:29:08.938Z,39
2018-09-30T10:32:08.948Z,38
2018-09-30T10:35:09.391Z,38
2018-09-30T10:38:09.005Z,39
2018-09-30T10:41:09.252Z,39
2018-09-30T10:44:09.076Z,39
2018-09-30T10:47:09.190Z,39
2018-09-30T10:50:09.111Z,39
2018-09-30T10:53:09.115Z,40
2018-09-30T10:56:09.156Z,40
2018-09-30T10:59:09.468Z,40
2018-09-30T11:02:09.307Z,40
2018-09-30T11:05:09.220Z,40
2018-09-30T11:08:09.227Z,40
2018-09-30T11:11:09.268Z,40
2018-09-30T11:14:09.425Z,39
2018-09-30T11:17:09.323Z,39
2018-09-30T11:20:09.346Z,39
2018-09-30T11:23:09.381Z,40
2018-09-30T11:26:09.510Z,40
2018-09-30T11:29:09.434Z,40
2018-09-30T11:32:09.468Z,40
2018-09-30T11:35:09.495Z,39
2018-09-30T11:38:09.522Z,39
2018-09-30T11:41:09.530Z,39
2018-09-30T11:44:09.583Z,39
2018-09-30T11:47:09.597Z,39
2018-09-30T11:50:09.618Z,40
2018-09-30T11:53:09.765Z,39
2018-09-30T11:56:09.678Z,39
2018-09-30T11:59:09.728Z,40
2018-09-30T12:02:09.765Z,40
2018-09-30T12:05:09.763Z,40
2018-09-30T12:08:09.773Z,40
2018-09-30T12:11:10.254Z,40
2018-09-30T12:14:09.853Z,40
2018-09-30T12:17:09.870Z,41
2018-09-30T12:20:09.925Z,41
2018-09-30T12:23:09.951Z,42
2018-09-30T12:26:10.081Z,42
2018-09-30T12:29:10.119Z,42
2018-09-30T12:32:10.033Z,43
2018-09-30T12:35:10.088Z,43
2018-09-30T12:38:10.081Z,42
2018-09-30T12:41:10.125Z,41
2018-09-30T12:44:10.188Z,41
2018-09-30T12:47:10.558Z,40
2018-09-30T12:50:10.209Z,40
2018-09-30T12:53:10.227Z,40
2018-09-30T12:56:10.278Z,40
2018-09-30T12:59:10.315Z,41
2018-09-30T13:02:10.315Z,41
2018-09-30T13:05:10.777Z,40
2018-09-30T13:08:10.387Z,39
2018-09-30T13:11:10.415Z,40
2018-09-30T13:14:10.449Z,40
2018-09-30T13:17:10.458Z,40
2018-09-30T13:20:10.487Z,40
2018-09-30T13:23:10.530Z,40
2018-09-30T13:26:10.550Z,40
2018-09-30T13:29:10.606Z,38
2018-09-30T13:32:10.619Z,38
2018-09-30T13:35:10.662Z,38
2018-09-30T13:38:10.656Z,37
2018-09-30T13:41:10.912Z,37
2018-09-30T13:44:10.848Z,37
2018-09-30T13:47:10.772Z,37
2018-09-30T13:50:10.770Z,36
2018-09-30T13:53:11.247Z,36
2018-09-30T13:56:10.846Z,36
2018-09-30T13:59:10.876Z,37
2018-09-30T14:02:10.901Z,37
2018-09-30T14:05:10.912Z,37
2018-09-30T14:08:11.031Z,37
2018-09-30T14:11:11.083Z,36
2018-09-30T14:14:10.996Z,36
2018-09-30T14:17:11.024Z,35
2018-09-30T14:20:11.053Z,35
2018-09-30T14:23:11.073Z,35
2018-09-30T14:26:11.103Z,35
2018-09-30T14:29:11.127Z,35
2018-09-30T14:32:11.248Z,35
2018-09-30T14:35:11.176Z,35
2018-09-30T14:38:11.190Z,34
2018-09-30T14:41:11.313Z,34
2018-09-30T14:44:11.239Z,33
2018-09-30T14:47:11.264Z,32
2018-09-30T14:50:11.273Z,30
2018-09-30T14:53:11.393Z,28
2018-09-30T14:56:11.391Z,26
2018-09-30T14:59:11.318Z,25
2018-09-30T15:05:11.346Z,23
2018-09-30T15:08:11.342Z,23
2018-09-30T15:11:11.462Z,22
2018-09-30T15:14:11.389Z,22
2018-09-30T15:17:11.474Z,21
2018-09-30T15:20:11.364Z,21
2018-09-30T15:23:11.393Z,21
2018-09-30T15:26:11.392Z,20
2018-09-30T15:29:11.371Z,20
2018-09-30T15:41:11.411Z,20
2018-09-30T15:59:11.577Z,19
2018-09-30T16:02:11.440Z,19
2018-09-30T16:05:11.535Z,19
2018-09-30T16:08:11.544Z,19
2018-09-30T16:11:11.462Z,19
2018-09-30T16:14:11.476Z,19
2018-09-30T16:17:11.477Z,19
2018-09-30T16:20:11.476Z,18
2018-09-30T16:44:11.511Z,17
2018-09-30T16:47:11.599Z,17
2018-09-30T16:50:11.516Z,17
2018-09-30T16:53:11.635Z,17
2018-09-30T16:56:11.498Z,16
2018-09-30T16:59:11.951Z,16
2018-09-30T17:02:11.504Z,16
2018-09-30T17:05:11.511Z,16
2018-09-30T17:08:11.486Z,15
2018-09-30T17:11:11.519Z,15
2018-09-30T17:14:11.523Z,15
2018-09-30T17:17:11.513Z,15
2018-09-30T17:20:11.610Z,15
2018-09-30T17:23:11.504Z,15
2018-09-30T17:26:11.498Z,14
2018-09-30T17:29:11.619Z,14
2018-09-30T17:32:11.605Z,14
2018-09-30T17:35:11.502Z,14
2018-09-30T17:38:11.506Z,14
2018-09-30T17:41:11.493Z,14
2018-09-30T17:44:11.502Z,14
2018-09-30T17:47:11.485Z,14
2018-09-30T17:50:11.488Z,13
2018-09-30T17:53:11.477Z,13
2018-09-30T17:56:11.590Z,13
2018-09-30T17:59:11.489Z,13
